sensor_id;sensor_type;location;lat;lon;timestamp;temperature;humidity
16128;DHT22;8168;49.036;7.690;2022-08-06T00:00:44;20.10;90.50
16128;DHT22;8168;49.036;7.690;2022-08-06T00:03:14;20.10;90.40
16128;DHT22;8168;49.036;7.690;2022-08-06T00:05:45;20.10;90.50
16128;DHT22;8168;49.036;7.690;2022-08-06T00:08:16;20.00;90.50
16128;DHT22;8168;49.036;7.690;2022-08-06T00:10:46;20.00;90.60
16128;DHT22;8168;49.036;7.690;2022-08-06T00:13:17;20.00;90.60
16128;DHT22;8168;49.036;7.690;2022-08-06T00:15:49;19.90;90.70
16128;DHT22;8168;49.036;7.690;2022-08-06T00:18:19;19.90;90.70
16128;DHT22;8168;49.036;7.690;2022-08-06T00:20:50;19.90;90.80
16128;DHT22;8168;49.036;7.690;2022-08-06T00:23:21;19.90;90.80
16128;DHT22;8168;49.036;7.690;2022-08-06T00:25:53;19.80;90.80
16128;DHT22;8168;49.036;7.690;2022-08-06T00:28:24;19.80;90.90
16128;DHT22;8168;49.036;7.690;2022-08-06T00:30:55;19.80;90.90
16128;DHT22;8168;49.036;7.690;2022-08-06T00:33:26;19.70;90.90
16128;DHT22;8168;49.036;7.690;2022-08-06T00:35:57;19.60;91.10
16128;DHT22;8168;49.036;7.690;2022-08-06T00:38:27;19.40;91.10
16128;DHT22;8168;49.036;7.690;2022-08-06T00:40:58;19.30;91.40
16128;DHT22;8168;49.036;7.690;2022-08-06T00:43:29;19.30;91.50
16128;DHT22;8168;49.036;7.690;2022-08-06T00:46:00;19.30;91.50
16128;DHT22;8168;49.036;7.690;2022-08-06T00:48:30;19.20;91.70
16128;DHT22;8168;49.036;7.690;2022-08-06T00:51:01;19.20;91.70
16128;DHT22;8168;49.036;7.690;2022-08-06T00:53:32;19.10;91.80
16128;DHT22;8168;49.036;7.690;2022-08-06T00:56:03;19.00;91.90
16128;DHT22;8168;49.036;7.690;2022-08-06T00:58:34;19.00;91.90
16128;DHT22;8168;49.036;7.690;2022-08-06T01:01:05;19.00;92.00
16128;DHT22;8168;49.036;7.690;2022-08-06T01:03:36;18.90;92.10
16128;DHT22;8168;49.036;7.690;2022-08-06T01:06:07;18.90;92.10
16128;DHT22;8168;49.036;7.690;2022-08-06T01:08:38;18.90;92.10
16128;DHT22;8168;49.036;7.690;2022-08-06T01:11:08;18.80;92.20
16128;DHT22;8168;49.036;7.690;2022-08-06T01:13:40;18.80;92.30
16128;DHT22;8168;49.036;7.690;2022-08-06T01:16:37;18.70;92.30
16128;DHT22;8168;49.036;7.690;2022-08-06T01:24:53;18.60;92.40
16128;DHT22;8168;49.036;7.690;2022-08-06T01:30:17;18.50;92.60
16128;DHT22;8168;49.036;7.690;2022-08-06T01:32:55;18.40;92.70
16128;DHT22;8168;49.036;7.690;2022-08-06T01:35:29;18.40;92.70
16128;DHT22;8168;49.036;7.690;2022-08-06T01:38:07;18.40;92.80
16128;DHT22;8168;49.036;7.690;2022-08-06T01:40:40;18.40;92.70
16128;DHT22;8168;49.036;7.690;2022-08-06T01:43:14;18.30;92.70
16128;DHT22;8168;49.036;7.690;2022-08-06T01:45:46;18.20;92.80
16128;DHT22;8168;49.036;7.690;2022-08-06T01:48:22;18.20;92.80
16128;DHT22;8168;49.036;7.690;2022-08-06T01:50:57;18.10;92.80
16128;DHT22;8168;49.036;7.690;2022-08-06T01:53:34;18.10;92.90
16128;DHT22;8168;49.036;7.690;2022-08-06T01:56:08;18.00;92.90
16128;DHT22;8168;49.036;7.690;2022-08-06T01:58:42;17.90;93.20
16128;DHT22;8168;49.036;7.690;2022-08-06T02:01:14;17.90;93.30
16128;DHT22;8168;49.036;7.690;2022-08-06T02:03:50;17.90;93.30
16128;DHT22;8168;49.036;7.690;2022-08-06T02:06:27;17.80;93.30
16128;DHT22;8168;49.036;7.690;2022-08-06T02:09:03;17.70;93.40
16128;DHT22;8168;49.036;7.690;2022-08-06T02:11:35;17.70;93.30
16128;DHT22;8168;49.036;7.690;2022-08-06T02:14:08;17.70;93.60
16128;DHT22;8168;49.036;7.690;2022-08-06T02:16:42;17.70;93.60
16128;DHT22;8168;49.036;7.690;2022-08-06T02:19:16;17.60;93.60
16128;DHT22;8168;49.036;7.690;2022-08-06T02:21:49;17.50;93.60
16128;DHT22;8168;49.036;7.690;2022-08-06T02:24:23;17.50;93.70
16128;DHT22;8168;49.036;7.690;2022-08-06T02:26:56;17.50;93.90
16128;DHT22;8168;49.036;7.690;2022-08-06T02:29:28;17.50;93.90
16128;DHT22;8168;49.036;7.690;2022-08-06T02:31:59;17.50;93.90
16128;DHT22;8168;49.036;7.690;2022-08-06T02:34:30;17.40;93.90
16128;DHT22;8168;49.036;7.690;2022-08-06T02:37:08;17.40;93.90
16128;DHT22;8168;49.036;7.690;2022-08-06T02:39:50;17.30;93.80
16128;DHT22;8168;49.036;7.690;2022-08-06T02:42:29;17.20;93.90
16128;DHT22;8168;49.036;7.690;2022-08-06T02:45:28;17.20;94.10
16128;DHT22;8168;49.036;7.690;2022-08-06T02:50:37;17.10;94.20
16128;DHT22;8168;49.036;7.690;2022-08-06T02:53:12;17.10;94.20
16128;DHT22;8168;49.036;7.690;2022-08-06T02:55:48;17.00;94.10
16128;DHT22;8168;49.036;7.690;2022-08-06T03:01:11;16.80;94.20
16128;DHT22;8168;49.036;7.690;2022-08-06T03:03:45;16.70;94.20
16128;DHT22;8168;49.036;7.690;2022-08-06T03:06:18;16.60;94.50
16128;DHT22;8168;49.036;7.690;2022-08-06T03:08:54;16.50;94.90
16128;DHT22;8168;49.036;7.690;2022-08-06T03:11:26;16.50;95.00
16128;DHT22;8168;49.036;7.690;2022-08-06T03:14:03;16.60;95.00
16128;DHT22;8168;49.036;7.690;2022-08-06T03:16:35;16.50;94.80
16128;DHT22;8168;49.036;7.690;2022-08-06T03:19:08;16.50;94.90
16128;DHT22;8168;49.036;7.690;2022-08-06T03:21:41;16.40;95.00
16128;DHT22;8168;49.036;7.690;2022-08-06T03:24:13;16.30;95.10
16128;DHT22;8168;49.036;7.690;2022-08-06T03:26:45;16.20;95.30
16128;DHT22;8168;49.036;7.690;2022-08-06T03:29:16;16.20;95.70
16128;DHT22;8168;49.036;7.690;2022-08-06T03:31:47;16.30;95.80
16128;DHT22;8168;49.036;7.690;2022-08-06T03:34:18;16.20;95.60
16128;DHT22;8168;49.036;7.690;2022-08-06T03:36:50;16.20;95.80
16128;DHT22;8168;49.036;7.690;2022-08-06T03:39:21;16.10;95.50
16128;DHT22;8168;49.036;7.690;2022-08-06T03:41:53;18.40;97.00
16128;DHT22;8168;49.036;7.690;2022-08-06T03:44:24;16.00;95.90
16128;DHT22;8168;49.036;7.690;2022-08-06T03:49:45;16.00;95.90
16128;DHT22;8168;49.036;7.690;2022-08-06T03:52:21;16.00;95.70
16128;DHT22;8168;49.036;7.690;2022-08-06T03:54:55;15.90;95.60
16128;DHT22;8168;49.036;7.690;2022-08-06T03:57:37;15.90;95.80
16128;DHT22;8168;49.036;7.690;2022-08-06T04:00:11;15.90;96.00
16128;DHT22;8168;49.036;7.690;2022-08-06T04:02:48;15.80;96.00
16128;DHT22;8168;49.036;7.690;2022-08-06T04:05:27;15.80;96.00
16128;DHT22;8168;49.036;7.690;2022-08-06T04:08:05;15.80;96.10
16128;DHT22;8168;49.036;7.690;2022-08-06T04:10:42;15.70;96.10
16128;DHT22;8168;49.036;7.690;2022-08-06T04:13:15;15.60;96.10
16128;DHT22;8168;49.036;7.690;2022-08-06T04:15:47;15.50;96.20
16128;DHT22;8168;49.036;7.690;2022-08-06T04:18:21;15.50;96.30
16128;DHT22;8168;49.036;7.690;2022-08-06T04:20:55;15.50;96.50
16128;DHT22;8168;49.036;7.690;2022-08-06T04:23:27;15.40;96.50
16128;DHT22;8168;49.036;7.690;2022-08-06T04:26:02;15.40;96.60
16128;DHT22;8168;49.036;7.690;2022-08-06T04:28:36;15.40;96.70
16128;DHT22;8168;49.036;7.690;2022-08-06T04:31:07;15.30;96.80
16128;DHT22;8168;49.036;7.690;2022-08-06T04:33:39;15.30;96.90
16128;DHT22;8168;49.036;7.690;2022-08-06T04:36:11;15.30;96.90
16128;DHT22;8168;49.036;7.690;2022-08-06T04:38:42;15.30;96.90
16128;DHT22;8168;49.036;7.690;2022-08-06T04:41:13;15.10;96.80
16128;DHT22;8168;49.036;7.690;2022-08-06T04:43:45;14.90;97.10
16128;DHT22;8168;49.036;7.690;2022-08-06T04:46:16;14.70;97.50
16128;DHT22;8168;49.036;7.690;2022-08-06T04:48:48;14.70;97.80
16128;DHT22;8168;49.036;7.690;2022-08-06T04:51:18;14.70;97.80
16128;DHT22;8168;49.036;7.690;2022-08-06T04:53:52;14.70;97.80
16128;DHT22;8168;49.036;7.690;2022-08-06T04:56:22;14.70;97.90
16128;DHT22;8168;49.036;7.690;2022-08-06T04:58:53;14.60;98.00
16128;DHT22;8168;49.036;7.690;2022-08-06T05:01:24;14.70;98.30
16128;DHT22;8168;49.036;7.690;2022-08-06T05:03:54;14.70;98.40
16128;DHT22;8168;49.036;7.690;2022-08-06T05:09:17;14.70;98.90
16128;DHT22;8168;49.036;7.690;2022-08-06T05:12:00;14.60;98.80
16128;DHT22;8168;49.036;7.690;2022-08-06T05:17:17;14.60;99.40
16128;DHT22;8168;49.036;7.690;2022-08-06T05:19:55;14.60;99.40
16128;DHT22;8168;49.036;7.690;2022-08-06T05:22:27;14.80;99.60
16128;DHT22;8168;49.036;7.690;2022-08-06T05:24:59;14.80;99.80
16128;DHT22;8168;49.036;7.690;2022-08-06T05:27:30;14.90;99.70
16128;DHT22;8168;49.036;7.690;2022-08-06T05:30:05;14.90;99.70
16128;DHT22;8168;49.036;7.690;2022-08-06T05:32:43;15.00;99.70
16128;DHT22;8168;49.036;7.690;2022-08-06T05:35:14;15.00;99.90
16128;DHT22;8168;49.036;7.690;2022-08-06T05:37:45;15.00;99.90
16128;DHT22;8168;49.036;7.690;2022-08-06T05:40:15;15.00;99.90
16128;DHT22;8168;49.036;7.690;2022-08-06T05:42:46;15.10;99.90
16128;DHT22;8168;49.036;7.690;2022-08-06T05:45:17;15.20;99.90
16128;DHT22;8168;49.036;7.690;2022-08-06T05:47:50;15.30;99.90
16128;DHT22;8168;49.036;7.690;2022-08-06T05:50:22;15.40;99.90
16128;DHT22;8168;49.036;7.690;2022-08-06T05:52:59;15.50;99.90
16128;DHT22;8168;49.036;7.690;2022-08-06T05:55:37;15.50;99.90
16128;DHT22;8168;49.036;7.690;2022-08-06T05:58:23;15.60;99.90
16128;DHT22;8168;49.036;7.690;2022-08-06T06:00:54;15.70;99.90
16128;DHT22;8168;49.036;7.690;2022-08-06T06:03:27;15.80;99.90
16128;DHT22;8168;49.036;7.690;2022-08-06T06:06:00;16.00;99.60
16128;DHT22;8168;49.036;7.690;2022-08-06T06:08:31;16.10;98.90
16128;DHT22;8168;49.036;7.690;2022-08-06T06:11:02;16.30;97.70
16128;DHT22;8168;49.036;7.690;2022-08-06T06:13:34;16.40;97.70
16128;DHT22;8168;49.036;7.690;2022-08-06T06:16:31;16.50;97.20
16128;DHT22;8168;49.036;7.690;2022-08-06T06:21:53;16.90;95.50
16128;DHT22;8168;49.036;7.690;2022-08-06T06:24:29;17.00;94.90
16128;DHT22;8168;49.036;7.690;2022-08-06T06:27:13;17.10;94.60
16128;DHT22;8168;49.036;7.690;2022-08-06T06:30:06;17.20;94.50
16128;DHT22;8168;49.036;7.690;2022-08-06T06:32:55;17.30;94.10
16128;DHT22;8168;49.036;7.690;2022-08-06T06:35:28;17.40;93.90
16128;DHT22;8168;49.036;7.690;2022-08-06T06:38:20;17.60;93.20
16128;DHT22;8168;49.036;7.690;2022-08-06T06:43:53;17.70;92.60
16128;DHT22;8168;49.036;7.690;2022-08-06T06:46:33;17.90;92.20
16128;DHT22;8168;49.036;7.690;2022-08-06T06:49:18;18.00;91.80
16128;DHT22;8168;49.036;7.690;2022-08-06T06:51:55;18.10;91.40
16128;DHT22;8168;49.036;7.690;2022-08-06T06:54:32;18.20;91.30
16128;DHT22;8168;49.036;7.690;2022-08-06T06:57:07;18.30;91.10
16128;DHT22;8168;49.036;7.690;2022-08-06T06:59:43;18.40;90.80
16128;DHT22;8168;49.036;7.690;2022-08-06T07:02:18;18.40;90.30
16128;DHT22;8168;49.036;7.690;2022-08-06T07:04:51;18.50;90.40
16128;DHT22;8168;49.036;7.690;2022-08-06T07:07:23;18.50;90.60
16128;DHT22;8168;49.036;7.690;2022-08-06T07:09:58;18.60;89.60
16128;DHT22;8168;49.036;7.690;2022-08-06T07:12:31;18.70;89.90
16128;DHT22;8168;49.036;7.690;2022-08-06T07:15:04;18.80;89.80
16128;DHT22;8168;49.036;7.690;2022-08-06T07:17:38;18.90;87.40
16128;DHT22;8168;49.036;7.690;2022-08-06T07:20:11;18.90;87.30
16128;DHT22;8168;49.036;7.690;2022-08-06T07:22:44;18.90;84.40
16128;DHT22;8168;49.036;7.690;2022-08-06T07:25:16;18.90;84.60
16128;DHT22;8168;49.036;7.690;2022-08-06T07:27:49;19.00;86.10
16128;DHT22;8168;49.036;7.690;2022-08-06T07:30:21;19.10;86.00
16128;DHT22;8168;49.036;7.690;2022-08-06T07:32:52;19.20;86.30
16128;DHT22;8168;49.036;7.690;2022-08-06T07:35:24;19.30;85.90
16128;DHT22;8168;49.036;7.690;2022-08-06T07:38:01;19.40;85.00
16128;DHT22;8168;49.036;7.690;2022-08-06T07:40:37;19.40;83.30
16128;DHT22;8168;49.036;7.690;2022-08-06T07:45:50;19.40;82.20
16128;DHT22;8168;49.036;7.690;2022-08-06T07:48:36;19.60;81.60
16128;DHT22;8168;49.036;7.690;2022-08-06T07:51:07;19.70;82.00
16128;DHT22;8168;49.036;7.690;2022-08-06T07:53:40;19.70;81.70
16128;DHT22;8168;49.036;7.690;2022-08-06T07:56:12;19.80;82.00
16128;DHT22;8168;49.036;7.690;2022-08-06T07:58:43;19.90;82.20
16128;DHT22;8168;49.036;7.690;2022-08-06T08:01:14;20.00;82.50
16128;DHT22;8168;49.036;7.690;2022-08-06T08:03:45;20.10;81.80
16128;DHT22;8168;49.036;7.690;2022-08-06T08:06:35;20.20;81.50
16128;DHT22;8168;49.036;7.690;2022-08-06T08:09:12;20.30;79.80
16128;DHT22;8168;49.036;7.690;2022-08-06T08:11:45;20.40;80.10
16128;DHT22;8168;49.036;7.690;2022-08-06T08:14:19;20.50;78.90
16128;DHT22;8168;49.036;7.690;2022-08-06T08:16:51;20.60;78.00
16128;DHT22;8168;49.036;7.690;2022-08-06T08:19:34;20.70;77.80
16128;DHT22;8168;49.036;7.690;2022-08-06T08:22:16;20.80;77.50
16128;DHT22;8168;49.036;7.690;2022-08-06T08:24:48;20.90;76.80
16128;DHT22;8168;49.036;7.690;2022-08-06T08:27:19;21.00;76.30
16128;DHT22;8168;49.036;7.690;2022-08-06T08:29:51;21.10;74.00
16128;DHT22;8168;49.036;7.690;2022-08-06T08:32:22;21.10;73.60
16128;DHT22;8168;49.036;7.690;2022-08-06T08:34:53;21.10;73.40
16128;DHT22;8168;49.036;7.690;2022-08-06T08:37:24;21.10;73.50
16128;DHT22;8168;49.036;7.690;2022-08-06T08:39:55;21.20;72.70
16128;DHT22;8168;49.036;7.690;2022-08-06T08:42:48;21.30;72.60
16128;DHT22;8168;49.036;7.690;2022-08-06T08:45:24;21.30;71.80
16128;DHT22;8168;49.036;7.690;2022-08-06T08:47:57;21.40;72.30
16128;DHT22;8168;49.036;7.690;2022-08-06T08:50:30;21.50;71.20
16128;DHT22;8168;49.036;7.690;2022-08-06T08:53:02;21.60;71.20
16128;DHT22;8168;49.036;7.690;2022-08-06T08:55:32;21.60;69.70
16128;DHT22;8168;49.036;7.690;2022-08-06T08:58:04;21.70;70.10
16128;DHT22;8168;49.036;7.690;2022-08-06T09:00:35;21.80;70.40
16128;DHT22;8168;49.036;7.690;2022-08-06T09:03:06;21.90;68.90
16128;DHT22;8168;49.036;7.690;2022-08-06T09:05:37;21.80;68.40
16128;DHT22;8168;49.036;7.690;2022-08-06T09:08:09;21.80;69.80
16128;DHT22;8168;49.036;7.690;2022-08-06T09:10:41;21.80;68.60
16128;DHT22;8168;49.036;7.690;2022-08-06T09:13:12;21.80;68.60
16128;DHT22;8168;49.036;7.690;2022-08-06T09:15:42;21.90;69.70
16128;DHT22;8168;49.036;7.690;2022-08-06T09:18:13;22.00;70.20
16128;DHT22;8168;49.036;7.690;2022-08-06T09:20:43;22.20;68.90
16128;DHT22;8168;49.036;7.690;2022-08-06T09:23:14;22.20;67.30
16128;DHT22;8168;49.036;7.690;2022-08-06T09:25:50;22.20;67.60
16128;DHT22;8168;49.036;7.690;2022-08-06T09:31:20;22.30;67.00
16128;DHT22;8168;49.036;7.690;2022-08-06T09:34:05;22.30;65.70
16128;DHT22;8168;49.036;7.690;2022-08-06T09:36:43;21.70;67.10
16128;DHT22;8168;49.036;7.690;2022-08-06T09:39:14;22.20;67.60
16128;DHT22;8168;49.036;7.690;2022-08-06T09:41:49;22.40;67.70
16128;DHT22;8168;49.036;7.690;2022-08-06T09:44:21;22.50;67.30
16128;DHT22;8168;49.036;7.690;2022-08-06T09:46:52;22.60;65.60
16128;DHT22;8168;49.036;7.690;2022-08-06T09:49:24;22.70;65.80
16128;DHT22;8168;49.036;7.690;2022-08-06T09:52:15;22.70;66.10
16128;DHT22;8168;49.036;7.690;2022-08-06T09:54:46;22.70;65.10
16128;DHT22;8168;49.036;7.690;2022-08-06T09:57:22;22.70;65.40
16128;DHT22;8168;49.036;7.690;2022-08-06T09:59:53;22.80;65.40
16128;DHT22;8168;49.036;7.690;2022-08-06T10:02:24;22.80;65.00
16128;DHT22;8168;49.036;7.690;2022-08-06T10:05:09;22.80;66.40
16128;DHT22;8168;49.036;7.690;2022-08-06T10:07:40;23.00;66.00
16128;DHT22;8168;49.036;7.690;2022-08-06T10:10:11;23.10;65.00
16128;DHT22;8168;49.036;7.690;2022-08-06T10:12:43;23.10;64.80
16128;DHT22;8168;49.036;7.690;2022-08-06T10:15:28;23.10;65.00
16128;DHT22;8168;49.036;7.690;2022-08-06T10:17:59;23.20;64.20
16128;DHT22;8168;49.036;7.690;2022-08-06T10:20:30;23.30;64.00
16128;DHT22;8168;49.036;7.690;2022-08-06T10:23:01;23.50;64.20
16128;DHT22;8168;49.036;7.690;2022-08-06T10:25:31;23.40;63.20
16128;DHT22;8168;49.036;7.690;2022-08-06T10:28:03;23.50;63.00
16128;DHT22;8168;49.036;7.690;2022-08-06T10:30:34;23.70;64.40
16128;DHT22;8168;49.036;7.690;2022-08-06T10:33:06;23.90;64.20
16128;DHT22;8168;49.036;7.690;2022-08-06T10:35:41;24.10;62.90
16128;DHT22;8168;49.036;7.690;2022-08-06T10:38:16;24.20;62.50
16128;DHT22;8168;49.036;7.690;2022-08-06T10:40:52;24.30;60.40
16128;DHT22;8168;49.036;7.690;2022-08-06T10:43:25;24.40;61.30
16128;DHT22;8168;49.036;7.690;2022-08-06T10:45:56;24.40;60.90
16128;DHT22;8168;49.036;7.690;2022-08-06T10:48:27;24.40;60.00
16128;DHT22;8168;49.036;7.690;2022-08-06T10:50:58;24.40;59.70
16128;DHT22;8168;49.036;7.690;2022-08-06T10:53:31;24.50;59.60
16128;DHT22;8168;49.036;7.690;2022-08-06T10:56:04;24.60;59.60
16128;DHT22;8168;49.036;7.690;2022-08-06T10:58:36;24.70;61.30
16128;DHT22;8168;49.036;7.690;2022-08-06T11:01:21;24.70;60.10
16128;DHT22;8168;49.036;7.690;2022-08-06T11:04:00;24.60;59.80
16128;DHT22;8168;49.036;7.690;2022-08-06T11:10:08;24.80;59.80
16128;DHT22;8168;49.036;7.690;2022-08-06T11:15:25;25.00;58.40
16128;DHT22;8168;49.036;7.690;2022-08-06T11:18:08;25.10;58.80
16128;DHT22;8168;49.036;7.690;2022-08-06T11:20:45;25.30;57.50
16128;DHT22;8168;49.036;7.690;2022-08-06T11:25:48;25.20;57.00
16128;DHT22;8168;49.036;7.690;2022-08-06T11:31:06;25.30;55.50
16128;DHT22;8168;49.036;7.690;2022-08-06T11:36:10;25.00;56.60
16128;DHT22;8168;49.036;7.690;2022-08-06T11:41:27;25.10;57.80
16128;DHT22;8168;49.036;7.690;2022-08-06T11:46:34;25.20;56.90
16128;DHT22;8168;49.036;7.690;2022-08-06T12:02:58;25.30;54.10
16128;DHT22;8168;49.036;7.690;2022-08-06T12:08:16;25.20;54.20
16128;DHT22;8168;49.036;7.690;2022-08-06T12:11:21;25.10;56.30
16128;DHT22;8168;49.036;7.690;2022-08-06T12:13:54;25.30;53.40
16128;DHT22;8168;49.036;7.690;2022-08-06T12:16:27;25.30;53.70
16128;DHT22;8168;49.036;7.690;2022-08-06T12:18:59;25.30;52.40
16128;DHT22;8168;49.036;7.690;2022-08-06T12:21:30;25.20;52.10
16128;DHT22;8168;49.036;7.690;2022-08-06T12:24:02;25.30;52.70
16128;DHT22;8168;49.036;7.690;2022-08-06T12:26:34;25.40;53.20
16128;DHT22;8168;49.036;7.690;2022-08-06T12:29:05;25.60;55.20
16128;DHT22;8168;49.036;7.690;2022-08-06T12:31:38;25.80;53.00
16128;DHT22;8168;49.036;7.690;2022-08-06T12:34:09;25.70;52.70
16128;DHT22;8168;49.036;7.690;2022-08-06T12:36:52;25.70;53.20
16128;DHT22;8168;49.036;7.690;2022-08-06T12:39:23;25.90;53.00
16128;DHT22;8168;49.036;7.690;2022-08-06T12:42:24;26.00;53.00
16128;DHT22;8168;49.036;7.690;2022-08-06T12:44:54;26.10;53.00
16128;DHT22;8168;49.036;7.690;2022-08-06T12:47:25;26.20;53.40
16128;DHT22;8168;49.036;7.690;2022-08-06T12:49:56;26.30;51.60
16128;DHT22;8168;49.036;7.690;2022-08-06T12:52:26;26.10;52.00
16128;DHT22;8168;49.036;7.690;2022-08-06T12:54:57;26.10;53.80
16128;DHT22;8168;49.036;7.690;2022-08-06T12:57:28;26.00;52.10
16128;DHT22;8168;49.036;7.690;2022-08-06T13:00:04;25.90;52.20
16128;DHT22;8168;49.036;7.690;2022-08-06T13:02:35;26.00;52.40
16128;DHT22;8168;49.036;7.690;2022-08-06T13:05:06;26.00;52.40
16128;DHT22;8168;49.036;7.690;2022-08-06T13:07:37;26.00;51.80
16128;DHT22;8168;49.036;7.690;2022-08-06T13:10:09;26.00;50.90
16128;DHT22;8168;49.036;7.690;2022-08-06T13:12:40;26.00;50.80
16128;DHT22;8168;49.036;7.690;2022-08-06T13:15:15;26.10;51.00
16128;DHT22;8168;49.036;7.690;2022-08-06T13:20:48;26.00;49.60
16128;DHT22;8168;49.036;7.690;2022-08-06T13:23:35;26.00;49.60
16128;DHT22;8168;49.036;7.690;2022-08-06T13:26:28;26.00;49.60
16128;DHT22;8168;49.036;7.690;2022-08-06T13:29:14;26.00;48.80
16128;DHT22;8168;49.036;7.690;2022-08-06T13:32:02;25.80;50.00
16128;DHT22;8168;49.036;7.690;2022-08-06T13:34:50;26.00;49.80
16128;DHT22;8168;49.036;7.690;2022-08-06T13:40:16;25.90;49.70
16128;DHT22;8168;49.036;7.690;2022-08-06T13:42:52;25.90;48.40
16128;DHT22;8168;49.036;7.690;2022-08-06T13:45:26;26.00;49.10
16128;DHT22;8168;49.036;7.690;2022-08-06T13:48:08;26.20;48.40
16128;DHT22;8168;49.036;7.690;2022-08-06T13:50:45;26.30;48.00
16128;DHT22;8168;49.036;7.690;2022-08-06T13:53:16;26.30;47.60
16128;DHT22;8168;49.036;7.690;2022-08-06T13:55:46;26.30;48.30
16128;DHT22;8168;49.036;7.690;2022-08-06T13:58:17;26.30;46.70
16128;DHT22;8168;49.036;7.690;2022-08-06T14:00:48;26.20;47.80
16128;DHT22;8168;49.036;7.690;2022-08-06T14:03:18;26.20;48.60
16128;DHT22;8168;49.036;7.690;2022-08-06T14:05:49;26.20;47.30
16128;DHT22;8168;49.036;7.690;2022-08-06T14:08:20;26.20;48.10
16128;DHT22;8168;49.036;7.690;2022-08-06T14:10:50;26.30;45.80
16128;DHT22;8168;49.036;7.690;2022-08-06T14:13:23;26.10;44.50
16128;DHT22;8168;49.036;7.690;2022-08-06T14:15:54;25.80;45.70
16128;DHT22;8168;49.036;7.690;2022-08-06T14:18:25;25.80;45.50
16128;DHT22;8168;49.036;7.690;2022-08-06T14:20:55;25.80;46.50
16128;DHT22;8168;49.036;7.690;2022-08-06T14:23:26;25.80;46.50
16128;DHT22;8168;49.036;7.690;2022-08-06T14:25:57;25.80;45.90
16128;DHT22;8168;49.036;7.690;2022-08-06T14:28:29;25.70;46.50
16128;DHT22;8168;49.036;7.690;2022-08-06T14:30:59;25.70;47.40
16128;DHT22;8168;49.036;7.690;2022-08-06T14:33:30;25.90;47.90
16128;DHT22;8168;49.036;7.690;2022-08-06T14:36:01;26.10;47.30
16128;DHT22;8168;49.036;7.690;2022-08-06T14:38:31;26.30;47.10
16128;DHT22;8168;49.036;7.690;2022-08-06T14:41:02;26.30;45.30
16128;DHT22;8168;49.036;7.690;2022-08-06T14:43:52;26.20;45.70
16128;DHT22;8168;49.036;7.690;2022-08-06T14:46:44;26.10;46.50
16128;DHT22;8168;49.036;7.690;2022-08-06T14:49:15;26.00;46.10
16128;DHT22;8168;49.036;7.690;2022-08-06T14:51:45;26.20;45.30
16128;DHT22;8168;49.036;7.690;2022-08-06T14:54:17;26.20;46.20
16128;DHT22;8168;49.036;7.690;2022-08-06T14:56:48;26.30;45.10
16128;DHT22;8168;49.036;7.690;2022-08-06T14:59:21;26.30;44.30
16128;DHT22;8168;49.036;7.690;2022-08-06T15:01:52;26.20;45.00
16128;DHT22;8168;49.036;7.690;2022-08-06T15:04:22;26.20;44.90
16128;DHT22;8168;49.036;7.690;2022-08-06T15:06:53;26.30;45.50
16128;DHT22;8168;49.036;7.690;2022-08-06T15:09:25;26.40;44.30
16128;DHT22;8168;49.036;7.690;2022-08-06T15:11:56;26.30;43.10
16128;DHT22;8168;49.036;7.690;2022-08-06T15:14:27;26.30;44.20
16128;DHT22;8168;49.036;7.690;2022-08-06T15:16:58;26.30;44.50
16128;DHT22;8168;49.036;7.690;2022-08-06T15:19:28;26.30;42.60
16128;DHT22;8168;49.036;7.690;2022-08-06T15:21:59;26.20;42.40
16128;DHT22;8168;49.036;7.690;2022-08-06T15:24:30;26.00;42.50
16128;DHT22;8168;49.036;7.690;2022-08-06T15:27:02;25.90;44.10
16128;DHT22;8168;49.036;7.690;2022-08-06T15:29:35;25.90;43.80
16128;DHT22;8168;49.036;7.690;2022-08-06T15:32:05;26.00;44.00
16128;DHT22;8168;49.036;7.690;2022-08-06T15:34:36;26.20;44.70
16128;DHT22;8168;49.036;7.690;2022-08-06T15:37:07;26.20;43.60
16128;DHT22;8168;49.036;7.690;2022-08-06T15:39:38;26.20;44.30
16128;DHT22;8168;49.036;7.690;2022-08-06T15:42:09;26.10;42.60
16128;DHT22;8168;49.036;7.690;2022-08-06T15:44:39;25.90;43.50
16128;DHT22;8168;49.036;7.690;2022-08-06T15:47:10;25.90;42.90
16128;DHT22;8168;49.036;7.690;2022-08-06T15:49:41;25.80;41.50
16128;DHT22;8168;49.036;7.690;2022-08-06T15:52:12;25.60;42.00
16128;DHT22;8168;49.036;7.690;2022-08-06T15:54:42;25.70;42.70
16128;DHT22;8168;49.036;7.690;2022-08-06T15:57:13;25.70;40.60
16128;DHT22;8168;49.036;7.690;2022-08-06T15:59:45;25.50;40.50
16128;DHT22;8168;49.036;7.690;2022-08-06T16:02:16;25.30;41.30
16128;DHT22;8168;49.036;7.690;2022-08-06T16:04:47;25.40;43.00
16128;DHT22;8168;49.036;7.690;2022-08-06T16:07:18;25.40;42.20
16128;DHT22;8168;49.036;7.690;2022-08-06T16:09:49;25.50;42.20
16128;DHT22;8168;49.036;7.690;2022-08-06T16:12:20;25.60;41.80
16128;DHT22;8168;49.036;7.690;2022-08-06T16:14:51;25.80;42.40
16128;DHT22;8168;49.036;7.690;2022-08-06T16:17:22;25.80;41.50
16128;DHT22;8168;49.036;7.690;2022-08-06T16:19:52;25.80;42.30
16128;DHT22;8168;49.036;7.690;2022-08-06T16:22:23;25.80;42.40
16128;DHT22;8168;49.036;7.690;2022-08-06T16:24:54;25.80;42.00
16128;DHT22;8168;49.036;7.690;2022-08-06T16:27:26;25.70;41.80
16128;DHT22;8168;49.036;7.690;2022-08-06T16:29:57;25.70;40.20
16128;DHT22;8168;49.036;7.690;2022-08-06T16:32:27;25.50;41.40
16128;DHT22;8168;49.036;7.690;2022-08-06T16:34:58;25.50;40.60
16128;DHT22;8168;49.036;7.690;2022-08-06T16:37:29;25.50;41.10
16128;DHT22;8168;49.036;7.690;2022-08-06T16:40:00;25.50;41.40
16128;DHT22;8168;49.036;7.690;2022-08-06T16:42:30;25.50;40.40
16128;DHT22;8168;49.036;7.690;2022-08-06T16:45:01;25.50;41.80
16128;DHT22;8168;49.036;7.690;2022-08-06T16:47:32;25.50;41.80
16128;DHT22;8168;49.036;7.690;2022-08-06T16:50:03;25.50;42.50
16128;DHT22;8168;49.036;7.690;2022-08-06T16:52:33;25.50;42.20
16128;DHT22;8168;49.036;7.690;2022-08-06T16:55:05;25.50;42.40
16128;DHT22;8168;49.036;7.690;2022-08-06T16:57:36;25.40;42.70
16128;DHT22;8168;49.036;7.690;2022-08-06T17:00:09;25.40;42.50
16128;DHT22;8168;49.036;7.690;2022-08-06T17:02:43;25.40;43.20
16128;DHT22;8168;49.036;7.690;2022-08-06T17:05:15;25.50;42.90
16128;DHT22;8168;49.036;7.690;2022-08-06T17:07:47;25.40;43.50
16128;DHT22;8168;49.036;7.690;2022-08-06T17:10:18;25.50;42.90
16128;DHT22;8168;49.036;7.690;2022-08-06T17:12:48;25.40;43.70
16128;DHT22;8168;49.036;7.690;2022-08-06T17:15:19;25.30;43.60
16128;DHT22;8168;49.036;7.690;2022-08-06T17:17:50;25.30;43.90
16128;DHT22;8168;49.036;7.690;2022-08-06T17:20:21;25.30;44.00
16128;DHT22;8168;49.036;7.690;2022-08-06T17:22:52;25.30;43.70
16128;DHT22;8168;49.036;7.690;2022-08-06T17:25:22;25.20;43.00
16128;DHT22;8168;49.036;7.690;2022-08-06T17:27:53;25.10;43.10
16128;DHT22;8168;49.036;7.690;2022-08-06T17:30:24;25.00;43.30
16128;DHT22;8168;49.036;7.690;2022-08-06T17:32:54;25.00;43.70
16128;DHT22;8168;49.036;7.690;2022-08-06T17:35:25;24.90;44.10
16128;DHT22;8168;49.036;7.690;2022-08-06T17:37:56;24.90;44.80
16128;DHT22;8168;49.036;7.690;2022-08-06T17:40:28;24.90;44.10